createdAt,value
2023-04-25T00:04:35.815Z,99.16
2023-04-25T00:10:06.945Z,98.91
2023-04-25T00:15:38.704Z,97.81
2023-04-25T00:21:14.745Z,97.83
2023-04-25T00:26:46.524Z,97.94
2023-04-25T00:32:18.224Z,97.16
2023-04-25T00:37:49.885Z,96.43
2023-04-25T00:43:21.680Z,94.74
2023-04-25T00:48:53.403Z,94.36
2023-04-25T00:54:25.167Z,94.77
2023-04-25T00:59:56.898Z,95.53
2023-04-25T01:05:28.757Z,95.38
2023-04-25T01:11:00.247Z,94.89
2023-04-25T01:16:32.128Z,94.48
2023-04-25T01:22:10.221Z,95.39
2023-04-25T01:27:41.889Z,96.17
2023-04-25T01:33:13.638Z,95.14
2023-04-25T01:38:45.314Z,95.43
2023-04-25T01:44:16.999Z,95.98
2023-04-25T01:49:48.747Z,96.93
2023-04-25T01:55:20.416Z,98.7
2023-04-25T02:00:52.152Z,100.0
2023-04-25T02:06:23.925Z,100.0
2023-04-25T02:11:55.623Z,100.0
2023-04-25T02:17:27.310Z,100.0
2023-04-25T02:23:03.873Z,100.0
2023-04-25T02:28:35.093Z,100.0
2023-04-25T02:34:06.897Z,100.0
2023-04-25T02:39:38.593Z,100.0
2023-04-25T02:45:10.293Z,100.0
2023-04-25T02:50:42.144Z,100.0
2023-04-25T02:56:13.811Z,100.0
2023-04-25T03:01:45.448Z,100.0
2023-04-25T03:07:17.276Z,100.0
2023-04-25T03:12:48.932Z,100.0
2023-04-25T03:18:21.467Z,100.0
2023-04-25T03:23:56.888Z,100.0
2023-04-25T03:29:28.574Z,100.0
2023-04-25T03:35:00.312Z,100.0
2023-04-25T03:40:31.974Z,100.0
2023-04-25T03:46:03.814Z,100.0
2023-04-25T03:51:35.716Z,100.0
2023-04-25T03:57:07.115Z,100.0
2023-04-25T04:02:39.256Z,100.0
2023-04-25T04:08:10.689Z,100.0
2023-04-25T04:13:42.423Z,100.0
2023-04-25T04:19:14.071Z,100.0
2023-04-25T04:24:50.143Z,100.0
2023-04-25T04:30:21.914Z,100.0
2023-04-25T04:35:53.678Z,100.0
2023-04-25T04:41:25.359Z,100.0
2023-04-25T04:46:57.265Z,100.0
2023-04-25T04:52:28.745Z,100.0
2023-04-25T04:58:00.580Z,100.0
2023-04-25T05:03:32.788Z,100.0
2023-04-25T05:09:03.951Z,100.0
2023-04-25T05:14:35.639Z,100.0
2023-04-25T05:20:07.393Z,100.0
2023-04-25T05:25:45.536Z,100.0
2023-04-25T05:31:17.225Z,100.0
2023-04-25T05:36:49.464Z,100.0
2023-04-25T05:42:20.766Z,100.0
2023-04-25T05:47:52.497Z,100.0
2023-04-25T05:53:24.245Z,100.0
2023-04-25T05:58:55.872Z,100.0
2023-04-25T06:04:28.191Z,100.0
2023-04-25T06:09:59.603Z,100.0
2023-04-25T06:15:31.134Z,100.0
2023-04-25T06:21:02.771Z,100.0
2023-04-25T06:26:41.016Z,100.0
2023-04-25T06:32:12.703Z,100.0
2023-04-25T06:37:44.334Z,100.0
2023-04-25T06:43:16.128Z,100.0
2023-04-25T06:48:47.856Z,100.0
2023-04-25T06:54:19.516Z,100.0
2023-04-25T06:59:51.259Z,100.0
2023-04-25T07:05:22.962Z,100.0
2023-04-25T07:10:54.665Z,100.0
2023-04-25T07:16:26.369Z,100.0
2023-04-25T07:21:58.428Z,100.0
2023-04-25T07:27:34.300Z,100.0
2023-04-25T07:33:06.203Z,100.0
2023-04-25T07:38:37.629Z,100.0
2023-04-25T07:44:09.398Z,100.0
2023-04-25T07:49:41.283Z,100.0
2023-04-25T07:55:13.514Z,100.0
2023-04-25T08:00:44.699Z,100.0
2023-04-25T08:06:16.968Z,100.0
2023-04-25T08:11:48.098Z,100.0
2023-04-25T08:17:19.757Z,100.0
2023-04-25T08:22:51.462Z,100.0
2023-04-25T08:28:27.549Z,100.0
2023-04-25T08:33:59.512Z,100.0
2023-04-25T08:39:31.018Z,100.0
2023-04-25T08:45:06.850Z,100.0
2023-04-25T08:50:34.408Z,100.0
2023-04-25T08:56:06.173Z,100.0
2023-04-25T09:01:38.100Z,100.0
2023-04-25T09:07:10.002Z,100.0
2023-04-25T09:12:41.610Z,100.0
2023-04-25T09:18:13.346Z,100.0
2023-04-25T09:23:44.869Z,100.0
2023-04-25T09:29:22.813Z,100.0
2023-04-25T09:34:54.832Z,100.0
2023-04-25T09:40:26.257Z,100.0
2023-04-25T09:45:59.511Z,100.0
2023-04-25T09:51:29.673Z,100.0
2023-04-25T09:57:01.451Z,100.0
2023-04-25T10:02:33.286Z,100.0
2023-04-25T10:08:04.952Z,100.0
2023-04-25T10:13:36.626Z,100.0
2023-04-25T10:19:08.422Z,100.0
2023-04-25T10:24:40.101Z,100.0
2023-04-25T10:30:17.116Z,100.0
2023-04-25T10:35:48.008Z,100.0
2023-04-25T10:41:19.689Z,100.0
2023-04-25T10:46:51.774Z,100.0
2023-04-25T10:52:23.167Z,100.0
2023-04-25T10:57:54.952Z,100.0
2023-04-25T11:03:26.937Z,100.0
2023-04-25T11:08:58.401Z,100.0
2023-04-25T11:14:30.472Z,100.0
2023-04-25T11:20:02.074Z,100.0
2023-04-25T11:25:36.715Z,100.0
2023-04-25T11:31:09.629Z,100.0
2023-04-25T11:36:41.420Z,100.0
2023-04-25T11:42:14.454Z,100.0
2023-04-25T11:47:45.656Z,100.0
2023-04-25T11:53:16.554Z,100.0
2023-04-25T11:58:49.576Z,100.0
2023-04-25T12:04:20.514Z,100.0
2023-04-25T12:09:51.733Z,100.0
2023-04-25T12:15:23.709Z,100.0
2023-04-25T12:20:55.468Z,100.0
2023-04-25T12:26:26.993Z,100.0
2023-04-25T12:32:04.953Z,100.0
2023-04-25T12:37:36.661Z,100.0
2023-04-25T12:43:08.521Z,100.0
2023-04-25T12:48:40.113Z,100.0
2023-04-25T12:54:11.948Z,100.0
2023-04-25T12:59:43.679Z,100.0
2023-04-25T13:05:15.379Z,100.0
2023-04-25T13:10:47.252Z,100.0
2023-04-25T13:16:18.968Z,100.0
2023-04-25T13:21:50.596Z,100.0
2023-04-25T13:27:22.397Z,100.0
2023-04-25T13:33:00.315Z,100.0
2023-04-25T13:38:32.040Z,100.0
2023-04-25T13:44:03.757Z,100.0
2023-04-25T13:49:35.424Z,100.0
2023-04-25T13:55:07.081Z,100.0
2023-04-25T14:00:38.893Z,100.0
2023-04-25T14:06:11.103Z,100.0
2023-04-25T14:11:42.336Z,100.0
2023-04-25T14:17:14.056Z,100.0
2023-04-25T14:22:45.925Z,100.0
2023-04-25T14:28:17.459Z,100.0
2023-04-25T14:33:55.787Z,100.0
2023-04-25T14:39:25.413Z,100.0
2023-04-25T14:44:57.135Z,100.0
2023-04-25T14:50:28.814Z,100.0
2023-04-25T14:56:00.673Z,100.0
2023-04-25T15:01:32.333Z,100.0
2023-04-25T15:07:04.052Z,100.0
2023-04-25T15:12:35.760Z,99.8
2023-04-25T15:18:07.476Z,98.49
2023-04-25T15:23:39.187Z,98.72
2023-04-25T15:29:10.931Z,98.08
2023-04-25T15:34:48.991Z,100.0
2023-04-25T15:40:20.784Z,100.0
2023-04-25T15:45:52.894Z,98.72
2023-04-25T15:51:24.346Z,100.0
2023-04-25T15:56:56.016Z,98.17
2023-04-25T16:02:27.984Z,99.18
2023-04-25T16:07:59.383Z,98.03
2023-04-25T16:13:31.291Z,98.12
2023-04-25T16:19:02.868Z,98.49
2023-04-25T16:24:34.540Z,99.73
2023-04-25T16:30:06.458Z,98.76
2023-04-25T16:35:44.499Z,98.96
2023-04-25T16:41:16.183Z,98.18
2023-04-25T16:46:47.898Z,98.33
2023-04-25T16:52:19.602Z,99.02
2023-04-25T16:57:51.213Z,99.58
2023-04-25T17:03:23.377Z,100.0
2023-04-25T17:08:55.017Z,100.0
2023-04-25T17:14:26.349Z,100.0
2023-04-25T17:19:58.418Z,100.0
2023-04-25T17:25:29.944Z,100.0
2023-04-25T17:31:01.891Z,100.0
2023-04-25T17:36:39.847Z,100.0
2023-04-25T17:42:11.576Z,100.0
2023-04-25T17:47:43.151Z,100.0
2023-04-25T17:53:14.775Z,100.0
2023-04-25T17:58:46.515Z,100.0
2023-04-25T18:04:18.285Z,100.0
2023-04-25T18:09:50.036Z,100.0
2023-04-25T18:15:21.768Z,100.0
2023-04-25T18:20:53.473Z,100.0
2023-04-25T18:26:25.196Z,100.0
2023-04-25T18:31:57.091Z,100.0
2023-04-25T18:37:33.101Z,100.0
2023-04-25T18:43:04.795Z,100.0
2023-04-25T18:48:36.797Z,100.0
2023-04-25T18:54:08.337Z,100.0
2023-04-25T18:59:40.083Z,100.0
2023-04-25T19:05:12.095Z,100.0
2023-04-25T19:10:43.450Z,100.0
2023-04-25T19:16:15.246Z,100.0
2023-04-25T19:21:46.899Z,100.0
2023-04-25T19:27:18.651Z,100.0
2023-04-25T19:32:50.332Z,100.0
2023-04-25T19:38:26.929Z,100.0
2023-04-25T19:43:58.328Z,100.0
2023-04-25T19:49:29.907Z,100.0
2023-04-25T19:55:01.592Z,100.0
2023-04-25T20:00:33.321Z,100.0
2023-04-25T20:06:05.084Z,100.0
2023-04-25T20:11:36.888Z,100.0
2023-04-25T20:17:08.522Z,100.0
2023-04-25T20:22:41.044Z,100.0
2023-04-25T20:28:12.103Z,100.0
2023-04-25T20:33:43.878Z,100.0
2023-04-25T20:39:21.990Z,100.0
2023-04-25T20:44:53.617Z,100.0
2023-04-25T20:50:25.378Z,100.0
2023-04-25T20:55:57.334Z,100.0
2023-04-25T21:01:28.910Z,100.0
2023-04-25T21:07:00.650Z,100.0
2023-04-25T21:12:32.984Z,100.0
2023-04-25T21:18:04.096Z,100.0
2023-04-25T21:23:35.701Z,100.0
2023-04-25T21:29:07.467Z,100.0
2023-04-25T21:34:39.124Z,100.0
2023-04-25T21:40:15.242Z,100.0
2023-04-25T21:46:23.240Z,100.0
2023-04-25T21:51:18.650Z,100.0
2023-04-25T21:56:50.449Z,100.0
2023-04-25T22:02:22.564Z,100.0
2023-04-25T22:07:53.963Z,100.0
2023-04-25T22:13:25.567Z,100.0
2023-04-25T22:18:57.263Z,100.0
2023-04-25T22:24:29.026Z,100.0
2023-04-25T22:30:00.865Z,100.0
2023-04-25T22:35:32.301Z,100.0
2023-04-25T22:41:10.657Z,100.0
2023-04-25T22:46:42.376Z,100.0
2023-04-25T22:52:14.032Z,100.0
2023-04-25T22:57:46.087Z,100.0
2023-04-25T23:03:18.145Z,100.0
2023-04-25T23:08:50.009Z,100.0
2023-04-25T23:14:20.970Z,100.0
2023-04-25T23:19:52.690Z,100.0
2023-04-25T23:25:24.615Z,100.0
2023-04-25T23:30:56.254Z,100.0
2023-04-25T23:36:28.051Z,100.0
2023-04-25T23:42:04.766Z,100.0
2023-04-25T23:47:35.956Z,100.0
2023-04-25T23:58:39.242Z,100.0
